sensor_id;sensor_type;location;lat;lon;timestamp;pressure;altitude;pressure_sealevel;temperature;humidity
48095;BME280;33874;52.070;-0.516;2023-07-02T00:00:25;100589.46;;;14.52;60.90
48095;BME280;33874;52.070;-0.516;2023-07-02T00:03:14;100598.79;;;14.49;61.26
48095;BME280;33874;52.070;-0.516;2023-07-02T00:05:42;100602.55;;;14.45;61.30
48095;BME280;33874;52.070;-0.516;2023-07-02T00:08:10;100602.11;;;14.42;61.41
48095;BME280;33874;52.070;-0.516;2023-07-02T00:10:38;100603.15;;;14.39;61.42
48095;BME280;33874;52.070;-0.516;2023-07-02T00:13:06;100603.22;;;14.37;61.57
48095;BME280;33874;52.070;-0.516;2023-07-02T00:15:34;100601.24;;;14.32;61.68
48095;BME280;33874;52.070;-0.516;2023-07-02T00:18:02;100602.73;;;14.30;61.76
48095;BME280;33874;52.070;-0.516;2023-07-02T00:20:31;100605.28;;;14.27;61.87
48095;BME280;33874;52.070;-0.516;2023-07-02T00:23:03;100607.57;;;14.24;61.84
48095;BME280;33874;52.070;-0.516;2023-07-02T00:25:31;100610.95;;;14.22;61.94
48095;BME280;33874;52.070;-0.516;2023-07-02T00:27:59;100611.09;;;14.20;61.99
48095;BME280;33874;52.070;-0.516;2023-07-02T00:30:27;100610.42;;;14.18;61.95
48095;BME280;33874;52.070;-0.516;2023-07-02T00:32:55;100613.73;;;14.15;62.05
48095;BME280;33874;52.070;-0.516;2023-07-02T00:35:23;100615.02;;;14.11;62.16
48095;BME280;33874;52.070;-0.516;2023-07-02T00:37:51;100619.13;;;14.07;62.07
48095;BME280;33874;52.070;-0.516;2023-07-02T00:40:19;100618.64;;;14.02;62.22
48095;BME280;33874;52.070;-0.516;2023-07-02T00:42:47;100621.42;;;13.99;62.25
48095;BME280;33874;52.070;-0.516;2023-07-02T00:45:15;100620.42;;;13.96;62.30
48095;BME280;33874;52.070;-0.516;2023-07-02T00:47:44;100621.46;;;13.97;62.25
48095;BME280;33874;52.070;-0.516;2023-07-02T00:50:13;100624.48;;;13.94;62.27
48095;BME280;33874;52.070;-0.516;2023-07-02T00:52:41;100624.07;;;13.92;62.44
48095;BME280;33874;52.070;-0.516;2023-07-02T00:55:09;100626.42;;;13.87;62.57
48095;BME280;33874;52.070;-0.516;2023-07-02T00:57:37;100626.18;;;13.83;62.67
48095;BME280;33874;52.070;-0.516;2023-07-02T01:00:08;100626.11;;;13.80;62.76
48095;BME280;33874;52.070;-0.516;2023-07-02T01:02:36;100627.33;;;13.77;62.92
48095;BME280;33874;52.070;-0.516;2023-07-02T01:05:06;100628.65;;;13.76;62.92
48095;BME280;33874;52.070;-0.516;2023-07-02T01:07:34;100635.48;;;13.77;63.03
48095;BME280;33874;52.070;-0.516;2023-07-02T01:10:02;100637.73;;;13.79;63.07
48095;BME280;33874;52.070;-0.516;2023-07-02T01:12:31;100638.81;;;13.79;62.97
48095;BME280;33874;52.070;-0.516;2023-07-02T01:15:03;100637.23;;;13.75;62.93
48095;BME280;33874;52.070;-0.516;2023-07-02T01:17:34;100635.90;;;13.67;63.06
48095;BME280;33874;52.070;-0.516;2023-07-02T01:20:10;100635.64;;;13.59;63.32
48095;BME280;33874;52.070;-0.516;2023-07-02T01:22:39;100630.77;;;13.52;63.43
48095;BME280;33874;52.070;-0.516;2023-07-02T01:25:08;100635.35;;;13.46;63.61
48095;BME280;33874;52.070;-0.516;2023-07-02T01:27:37;100638.98;;;13.41;63.63
48095;BME280;33874;52.070;-0.516;2023-07-02T01:30:05;100645.42;;;13.40;63.79
48095;BME280;33874;52.070;-0.516;2023-07-02T01:32:34;100640.12;;;13.40;63.90
48095;BME280;33874;52.070;-0.516;2023-07-02T01:35:02;100642.60;;;13.40;63.94
48095;BME280;33874;52.070;-0.516;2023-07-02T01:37:30;100643.20;;;13.40;64.05
48095;BME280;33874;52.070;-0.516;2023-07-02T01:40:05;100638.13;;;13.39;64.07
48095;BME280;33874;52.070;-0.516;2023-07-02T01:42:37;100649.10;;;13.35;64.03
48095;BME280;33874;52.070;-0.516;2023-07-02T01:45:06;100648.08;;;13.30;64.05
48095;BME280;33874;52.070;-0.516;2023-07-02T01:47:35;100647.47;;;13.25;64.25
48095;BME280;33874;52.070;-0.516;2023-07-02T01:50:04;100646.17;;;13.22;64.44
48095;BME280;33874;52.070;-0.516;2023-07-02T01:52:32;100646.42;;;13.21;64.57
48095;BME280;33874;52.070;-0.516;2023-07-02T01:55:01;100645.09;;;13.19;64.65
48095;BME280;33874;52.070;-0.516;2023-07-02T01:57:29;100639.83;;;13.14;64.72
48095;BME280;33874;52.070;-0.516;2023-07-02T01:59:58;100641.34;;;13.10;64.98
48095;BME280;33874;52.070;-0.516;2023-07-02T02:02:26;100643.49;;;13.06;65.20
48095;BME280;33874;52.070;-0.516;2023-07-02T02:04:54;100640.27;;;13.01;65.30
48095;BME280;33874;52.070;-0.516;2023-07-02T02:07:24;100640.80;;;12.99;65.47
48095;BME280;33874;52.070;-0.516;2023-07-02T02:09:54;100646.70;;;13.00;65.63
48095;BME280;33874;52.070;-0.516;2023-07-02T02:12:22;100649.14;;;13.03;65.64
48095;BME280;33874;52.070;-0.516;2023-07-02T02:14:50;100652.71;;;13.06;65.67
48095;BME280;33874;52.070;-0.516;2023-07-02T02:17:18;100653.81;;;13.09;65.67
48095;BME280;33874;52.070;-0.516;2023-07-02T02:19:46;100656.98;;;13.11;65.61
48095;BME280;33874;52.070;-0.516;2023-07-02T02:22:14;100654.02;;;13.12;65.67
48095;BME280;33874;52.070;-0.516;2023-07-02T02:24:42;100657.17;;;13.14;65.66
48095;BME280;33874;52.070;-0.516;2023-07-02T02:27:10;100659.95;;;13.14;65.59
48095;BME280;33874;52.070;-0.516;2023-07-02T02:29:38;100664.42;;;13.14;65.53
48095;BME280;33874;52.070;-0.516;2023-07-02T02:32:06;100662.45;;;13.12;65.52
48095;BME280;33874;52.070;-0.516;2023-07-02T02:34:34;100660.63;;;13.09;65.56
48095;BME280;33874;52.070;-0.516;2023-07-02T02:37:02;100661.54;;;13.07;65.49
48095;BME280;33874;52.070;-0.516;2023-07-02T02:39:30;100661.66;;;13.00;65.49
48095;BME280;33874;52.070;-0.516;2023-07-02T02:41:58;100662.59;;;12.93;65.55
48095;BME280;33874;52.070;-0.516;2023-07-02T02:44:26;100664.27;;;12.84;65.62
48095;BME280;33874;52.070;-0.516;2023-07-02T02:46:54;100665.15;;;12.79;65.93
48095;BME280;33874;52.070;-0.516;2023-07-02T02:49:22;100667.50;;;12.74;65.96
48095;BME280;33874;52.070;-0.516;2023-07-02T02:51:50;100667.63;;;12.71;66.19
48095;BME280;33874;52.070;-0.516;2023-07-02T02:54:18;100669.38;;;12.71;66.19
48095;BME280;33874;52.070;-0.516;2023-07-02T02:56:46;100670.30;;;12.71;66.27
48095;BME280;33874;52.070;-0.516;2023-07-02T02:59:14;100674.90;;;12.71;66.24
48095;BME280;33874;52.070;-0.516;2023-07-02T03:01:42;100675.89;;;12.68;66.31
48095;BME280;33874;52.070;-0.516;2023-07-02T03:04:09;100674.16;;;12.66;66.38
48095;BME280;33874;52.070;-0.516;2023-07-02T03:06:38;100673.55;;;12.65;66.43
48095;BME280;33874;52.070;-0.516;2023-07-02T03:09:07;100673.04;;;12.63;66.52
48095;BME280;33874;52.070;-0.516;2023-07-02T03:11:35;100677.05;;;12.62;66.61
48095;BME280;33874;52.070;-0.516;2023-07-02T03:14:02;100677.98;;;12.59;66.61
48095;BME280;33874;52.070;-0.516;2023-07-02T03:16:30;100678.34;;;12.57;66.59
48095;BME280;33874;52.070;-0.516;2023-07-02T03:18:58;100676.57;;;12.55;66.67
48095;BME280;33874;52.070;-0.516;2023-07-02T03:21:26;100679.38;;;12.54;66.65
48095;BME280;33874;52.070;-0.516;2023-07-02T03:23:54;100678.14;;;12.52;66.69
48095;BME280;33874;52.070;-0.516;2023-07-02T03:26:22;100676.95;;;12.52;66.91
48095;BME280;33874;52.070;-0.516;2023-07-02T03:28:51;100675.15;;;12.52;66.81
48095;BME280;33874;52.070;-0.516;2023-07-02T03:31:19;100679.89;;;12.52;66.86
48095;BME280;33874;52.070;-0.516;2023-07-02T03:33:47;100679.88;;;12.50;66.96
48095;BME280;33874;52.070;-0.516;2023-07-02T03:36:15;100685.61;;;12.49;66.93
48095;BME280;33874;52.070;-0.516;2023-07-02T03:38:43;100684.02;;;12.49;67.05
48095;BME280;33874;52.070;-0.516;2023-07-02T03:41:11;100685.73;;;12.48;66.95
48095;BME280;33874;52.070;-0.516;2023-07-02T03:43:40;100686.66;;;12.45;67.03
48095;BME280;33874;52.070;-0.516;2023-07-02T03:46:07;100684.85;;;12.42;67.02
48095;BME280;33874;52.070;-0.516;2023-07-02T03:48:35;100686.84;;;12.36;67.19
48095;BME280;33874;52.070;-0.516;2023-07-02T03:51:03;100688.44;;;12.30;67.17
48095;BME280;33874;52.070;-0.516;2023-07-02T03:53:31;100692.06;;;12.27;67.46
48095;BME280;33874;52.070;-0.516;2023-07-02T03:55:59;100692.73;;;12.26;67.55
48095;BME280;33874;52.070;-0.516;2023-07-02T03:58:27;100694.74;;;12.27;67.67
48095;BME280;33874;52.070;-0.516;2023-07-02T04:00:55;100694.02;;;12.29;67.78
48095;BME280;33874;52.070;-0.516;2023-07-02T04:03:23;100696.01;;;12.28;67.84
48095;BME280;33874;52.070;-0.516;2023-07-02T04:05:51;100694.46;;;12.30;67.96
48095;BME280;33874;52.070;-0.516;2023-07-02T04:08:21;100695.56;;;12.31;68.20
48095;BME280;33874;52.070;-0.516;2023-07-02T04:10:49;100697.60;;;12.30;68.21
48095;BME280;33874;52.070;-0.516;2023-07-02T04:13:18;100700.68;;;12.29;68.28
48095;BME280;33874;52.070;-0.516;2023-07-02T04:15:45;100705.02;;;12.30;68.41
48095;BME280;33874;52.070;-0.516;2023-07-02T04:18:13;100705.21;;;12.34;68.44
48095;BME280;33874;52.070;-0.516;2023-07-02T04:20:42;100705.80;;;12.37;68.57
48095;BME280;33874;52.070;-0.516;2023-07-02T04:23:09;100707.27;;;12.36;68.57
48095;BME280;33874;52.070;-0.516;2023-07-02T04:25:37;100707.92;;;12.36;68.71
48095;BME280;33874;52.070;-0.516;2023-07-02T04:28:25;100711.30;;;12.38;68.76
48095;BME280;33874;52.070;-0.516;2023-07-02T04:30:53;100718.70;;;12.40;68.79
48095;BME280;33874;52.070;-0.516;2023-07-02T04:33:21;100716.32;;;12.45;68.91
48095;BME280;33874;52.070;-0.516;2023-07-02T04:35:49;100722.92;;;12.49;68.87
48095;BME280;33874;52.070;-0.516;2023-07-02T04:38:17;100728.14;;;12.53;68.80
48095;BME280;33874;52.070;-0.516;2023-07-02T04:40:45;100729.48;;;12.59;68.98
48095;BME280;33874;52.070;-0.516;2023-07-02T04:43:14;100731.80;;;12.64;68.81
48095;BME280;33874;52.070;-0.516;2023-07-02T04:45:46;100730.54;;;12.66;68.62
48095;BME280;33874;52.070;-0.516;2023-07-02T04:48:16;100729.98;;;12.72;68.75
48095;BME280;33874;52.070;-0.516;2023-07-02T04:50:44;100727.24;;;12.77;68.70
48095;BME280;33874;52.070;-0.516;2023-07-02T04:53:12;100725.05;;;12.78;68.61
48095;BME280;33874;52.070;-0.516;2023-07-02T04:55:40;100727.43;;;12.77;68.58
48095;BME280;33874;52.070;-0.516;2023-07-02T04:58:08;100726.11;;;12.78;68.79
48095;BME280;33874;52.070;-0.516;2023-07-02T05:00:36;100726.99;;;12.78;68.91
48095;BME280;33874;52.070;-0.516;2023-07-02T05:03:04;100726.66;;;12.81;68.96
48095;BME280;33874;52.070;-0.516;2023-07-02T05:05:32;100726.02;;;12.84;69.00
48095;BME280;33874;52.070;-0.516;2023-07-02T05:08:00;100726.83;;;12.90;68.96
48095;BME280;33874;52.070;-0.516;2023-07-02T05:10:28;100723.19;;;12.97;68.98
48095;BME280;33874;52.070;-0.516;2023-07-02T05:12:56;100725.16;;;13.03;68.84
48095;BME280;33874;52.070;-0.516;2023-07-02T05:15:24;100720.16;;;13.05;68.86
48095;BME280;33874;52.070;-0.516;2023-07-02T05:17:53;100722.60;;;13.11;68.86
48095;BME280;33874;52.070;-0.516;2023-07-02T05:20:21;100719.98;;;13.14;68.76
48095;BME280;33874;52.070;-0.516;2023-07-02T05:22:49;100720.98;;;13.18;68.86
48095;BME280;33874;52.070;-0.516;2023-07-02T05:25:17;100722.73;;;13.24;68.79
48095;BME280;33874;52.070;-0.516;2023-07-02T05:27:45;100721.59;;;13.31;68.70
48095;BME280;33874;52.070;-0.516;2023-07-02T05:30:15;100722.17;;;13.36;68.70
48095;BME280;33874;52.070;-0.516;2023-07-02T05:32:43;100728.30;;;13.40;68.57
48095;BME280;33874;52.070;-0.516;2023-07-02T05:35:11;100730.36;;;13.46;68.59
48095;BME280;33874;52.070;-0.516;2023-07-02T05:37:39;100731.78;;;13.55;68.51
48095;BME280;33874;52.070;-0.516;2023-07-02T05:40:08;100731.56;;;13.61;68.43
48095;BME280;33874;52.070;-0.516;2023-07-02T05:42:36;100732.39;;;13.67;68.29
48095;BME280;33874;52.070;-0.516;2023-07-02T05:45:05;100736.67;;;13.79;68.23
48095;BME280;33874;52.070;-0.516;2023-07-02T05:47:33;100733.90;;;14.69;67.73
48095;BME280;33874;52.070;-0.516;2023-07-02T05:50:01;100728.21;;;15.61;66.66
48095;BME280;33874;52.070;-0.516;2023-07-02T05:52:29;100725.08;;;15.69;66.16
48095;BME280;33874;52.070;-0.516;2023-07-02T05:54:57;100728.74;;;15.53;65.87
48095;BME280;33874;52.070;-0.516;2023-07-02T05:57:25;100733.36;;;15.39;65.77
48095;BME280;33874;52.070;-0.516;2023-07-02T05:59:53;100729.45;;;15.30;65.63
48095;BME280;33874;52.070;-0.516;2023-07-02T06:02:21;100734.21;;;15.23;65.38
48095;BME280;33874;52.070;-0.516;2023-07-02T06:04:49;100737.11;;;15.69;64.94
48095;BME280;33874;52.070;-0.516;2023-07-02T06:07:17;100728.04;;;17.24;62.55
48095;BME280;33874;52.070;-0.516;2023-07-02T06:09:45;100739.22;;;18.69;59.56
48095;BME280;33874;52.070;-0.516;2023-07-02T06:12:13;100735.02;;;19.90;57.92
48095;BME280;33874;52.070;-0.516;2023-07-02T06:14:41;100731.11;;;20.84;55.13
48095;BME280;33874;52.070;-0.516;2023-07-02T06:17:09;100727.95;;;21.57;53.32
48095;BME280;33874;52.070;-0.516;2023-07-02T06:19:37;100729.11;;;22.22;52.02
48095;BME280;33874;52.070;-0.516;2023-07-02T06:22:05;100729.05;;;22.91;50.72
48095;BME280;33874;52.070;-0.516;2023-07-02T06:24:33;100728.45;;;23.39;49.48
48095;BME280;33874;52.070;-0.516;2023-07-02T06:27:02;100729.95;;;23.76;48.15
48095;BME280;33874;52.070;-0.516;2023-07-02T06:29:30;100733.00;;;24.07;47.43
48095;BME280;33874;52.070;-0.516;2023-07-02T06:31:59;100731.56;;;24.32;45.97
48095;BME280;33874;52.070;-0.516;2023-07-02T06:34:27;100739.39;;;24.48;45.30
48095;BME280;33874;52.070;-0.516;2023-07-02T06:36:55;100741.02;;;24.67;45.09
48095;BME280;33874;52.070;-0.516;2023-07-02T06:39:23;100741.53;;;24.88;44.00
48095;BME280;33874;52.070;-0.516;2023-07-02T06:41:51;100741.35;;;24.97;43.76
48095;BME280;33874;52.070;-0.516;2023-07-02T06:44:19;100740.14;;;25.18;42.97
48095;BME280;33874;52.070;-0.516;2023-07-02T06:46:47;100736.78;;;25.13;42.19
48095;BME280;33874;52.070;-0.516;2023-07-02T06:49:15;100738.09;;;25.16;42.46
48095;BME280;33874;52.070;-0.516;2023-07-02T06:51:44;100739.53;;;25.32;42.05
48095;BME280;33874;52.070;-0.516;2023-07-02T06:54:12;100734.06;;;25.35;41.39
48095;BME280;33874;52.070;-0.516;2023-07-02T06:56:41;100734.41;;;25.59;41.71
48095;BME280;33874;52.070;-0.516;2023-07-02T06:59:09;100734.45;;;25.70;41.53
48095;BME280;33874;52.070;-0.516;2023-07-02T07:01:37;100735.96;;;25.95;41.48
48095;BME280;33874;52.070;-0.516;2023-07-02T07:04:05;100735.39;;;26.15;41.01
48095;BME280;33874;52.070;-0.516;2023-07-02T07:06:33;100736.17;;;26.37;40.68
48095;BME280;33874;52.070;-0.516;2023-07-02T07:09:01;100743.04;;;26.43;40.14
48095;BME280;33874;52.070;-0.516;2023-07-02T07:11:30;100743.75;;;26.34;39.69
48095;BME280;33874;52.070;-0.516;2023-07-02T07:13:58;100745.33;;;26.36;39.87
48095;BME280;33874;52.070;-0.516;2023-07-02T07:16:26;100744.56;;;26.36;38.98
48095;BME280;33874;52.070;-0.516;2023-07-02T07:18:54;100744.41;;;26.14;39.03
48095;BME280;33874;52.070;-0.516;2023-07-02T07:21:22;100747.77;;;25.84;38.35
48095;BME280;33874;52.070;-0.516;2023-07-02T07:23:50;100749.45;;;25.64;39.00
48095;BME280;33874;52.070;-0.516;2023-07-02T07:26:18;100747.44;;;25.70;39.63
48095;BME280;33874;52.070;-0.516;2023-07-02T07:28:46;100745.11;;;25.67;39.07
48095;BME280;33874;52.070;-0.516;2023-07-02T07:31:14;100753.29;;;25.44;38.16
48095;BME280;33874;52.070;-0.516;2023-07-02T07:33:42;100756.45;;;25.12;39.09
48095;BME280;33874;52.070;-0.516;2023-07-02T07:36:11;100757.90;;;25.18;39.70
48095;BME280;33874;52.070;-0.516;2023-07-02T07:38:40;100755.01;;;25.36;39.11
48095;BME280;33874;52.070;-0.516;2023-07-02T07:41:08;100756.57;;;25.24;39.12
48095;BME280;33874;52.070;-0.516;2023-07-02T07:43:36;100757.95;;;25.20;39.53
48095;BME280;33874;52.070;-0.516;2023-07-02T07:46:04;100753.35;;;25.08;39.21
48095;BME280;33874;52.070;-0.516;2023-07-02T07:48:32;100751.80;;;24.87;39.84
48095;BME280;33874;52.070;-0.516;2023-07-02T07:51:00;100754.14;;;24.53;40.54
48095;BME280;33874;52.070;-0.516;2023-07-02T07:53:28;100756.48;;;23.97;41.38
48095;BME280;33874;52.070;-0.516;2023-07-02T07:55:57;100754.64;;;23.41;42.17
48095;BME280;33874;52.070;-0.516;2023-07-02T07:58:25;100753.19;;;22.73;42.37
48095;BME280;33874;52.070;-0.516;2023-07-02T08:00:53;100754.98;;;22.00;42.93
48095;BME280;33874;52.070;-0.516;2023-07-02T08:03:21;100757.02;;;21.48;44.23
48095;BME280;33874;52.070;-0.516;2023-07-02T08:05:50;100762.98;;;21.10;45.27
48095;BME280;33874;52.070;-0.516;2023-07-02T08:08:18;100761.88;;;20.87;45.70
48095;BME280;33874;52.070;-0.516;2023-07-02T08:10:45;100761.77;;;20.46;45.18
48095;BME280;33874;52.070;-0.516;2023-07-02T08:13:14;100761.52;;;20.17;45.60
48095;BME280;33874;52.070;-0.516;2023-07-02T08:15:43;100758.27;;;20.03;45.98
48095;BME280;33874;52.070;-0.516;2023-07-02T08:18:13;100759.48;;;19.96;46.54
48095;BME280;33874;52.070;-0.516;2023-07-02T08:20:41;100761.69;;;20.00;45.55
48095;BME280;33874;52.070;-0.516;2023-07-02T08:23:09;100763.48;;;19.98;45.55
48095;BME280;33874;52.070;-0.516;2023-07-02T08:25:37;100762.88;;;20.11;44.75
48095;BME280;33874;52.070;-0.516;2023-07-02T08:28:05;100754.38;;;20.15;44.41
48095;BME280;33874;52.070;-0.516;2023-07-02T08:30:33;100757.57;;;20.28;43.90
48095;BME280;33874;52.070;-0.516;2023-07-02T08:33:01;100754.27;;;20.22;43.67
48095;BME280;33874;52.070;-0.516;2023-07-02T08:35:29;100757.48;;;20.18;43.33
48095;BME280;33874;52.070;-0.516;2023-07-02T08:37:58;100759.02;;;20.15;42.36
48095;BME280;33874;52.070;-0.516;2023-07-02T08:40:26;100756.95;;;20.26;42.80
48095;BME280;33874;52.070;-0.516;2023-07-02T08:42:54;100753.64;;;20.21;42.70
48095;BME280;33874;52.070;-0.516;2023-07-02T08:45:25;100757.98;;;20.09;42.86
48095;BME280;33874;52.070;-0.516;2023-07-02T08:47:53;100755.73;;;19.93;42.22
48095;BME280;33874;52.070;-0.516;2023-07-02T08:50:26;100760.92;;;19.60;42.20
48095;BME280;33874;52.070;-0.516;2023-07-02T08:52:54;100763.84;;;19.28;42.48
48095;BME280;33874;52.070;-0.516;2023-07-02T08:55:22;100765.52;;;19.06;43.40
48095;BME280;33874;52.070;-0.516;2023-07-02T08:57:53;100774.36;;;18.93;43.54
48095;BME280;33874;52.070;-0.516;2023-07-02T09:00:22;100772.64;;;18.83;43.70
48095;BME280;33874;52.070;-0.516;2023-07-02T09:02:50;100772.36;;;18.89;44.15
48095;BME280;33874;52.070;-0.516;2023-07-02T09:05:18;100772.77;;;19.12;44.69
48095;BME280;33874;52.070;-0.516;2023-07-02T09:07:48;100778.36;;;19.28;45.12
48095;BME280;33874;52.070;-0.516;2023-07-02T09:10:28;100774.20;;;19.38;45.23
48095;BME280;33874;52.070;-0.516;2023-07-02T09:13:06;100771.22;;;19.34;44.83
48095;BME280;33874;52.070;-0.516;2023-07-02T09:15:38;100779.06;;;19.16;43.89
48095;BME280;33874;52.070;-0.516;2023-07-02T09:18:21;100768.37;;;19.09;44.58
48095;BME280;33874;52.070;-0.516;2023-07-02T09:20:51;100765.71;;;19.04;44.82
48095;BME280;33874;52.070;-0.516;2023-07-02T09:23:34;100767.94;;;18.99;44.96
48095;BME280;33874;52.070;-0.516;2023-07-02T09:26:06;100761.15;;;19.12;45.14
48095;BME280;33874;52.070;-0.516;2023-07-02T09:28:34;100768.58;;;19.19;44.96
48095;BME280;33874;52.070;-0.516;2023-07-02T09:31:01;100766.55;;;19.15;45.12
48095;BME280;33874;52.070;-0.516;2023-07-02T09:33:29;100763.45;;;19.48;45.10
48095;BME280;33874;52.070;-0.516;2023-07-02T09:35:58;100754.06;;;19.66;44.97
48095;BME280;33874;52.070;-0.516;2023-07-02T09:38:26;100751.08;;;19.67;44.84
48095;BME280;33874;52.070;-0.516;2023-07-02T09:40:54;100750.59;;;19.68;44.53
48095;BME280;33874;52.070;-0.516;2023-07-02T09:43:24;100753.40;;;19.66;44.43
48095;BME280;33874;52.070;-0.516;2023-07-02T09:45:54;100755.41;;;19.54;44.58
48095;BME280;33874;52.070;-0.516;2023-07-02T09:48:24;100760.02;;;19.45;45.14
48095;BME280;33874;52.070;-0.516;2023-07-02T09:50:58;100765.16;;;19.32;45.14
48095;BME280;33874;52.070;-0.516;2023-07-02T09:53:28;100766.39;;;19.22;45.43
48095;BME280;33874;52.070;-0.516;2023-07-02T09:55:56;100766.71;;;19.18;45.75
48095;BME280;33874;52.070;-0.516;2023-07-02T09:58:24;100759.10;;;19.27;45.85
48095;BME280;33874;52.070;-0.516;2023-07-02T10:00:52;100750.36;;;19.63;46.35
48095;BME280;33874;52.070;-0.516;2023-07-02T10:03:36;100749.86;;;19.96;45.55
48095;BME280;33874;52.070;-0.516;2023-07-02T10:06:16;100751.71;;;20.08;45.24
48095;BME280;33874;52.070;-0.516;2023-07-02T10:08:56;100757.42;;;20.10;44.91
48095;BME280;33874;52.070;-0.516;2023-07-02T10:11:34;100755.84;;;19.99;44.04
48095;BME280;33874;52.070;-0.516;2023-07-02T10:14:04;100753.09;;;20.09;44.67
48095;BME280;33874;52.070;-0.516;2023-07-02T10:16:32;100756.61;;;20.33;44.85
48095;BME280;33874;52.070;-0.516;2023-07-02T10:19:13;100757.43;;;20.69;44.73
48095;BME280;33874;52.070;-0.516;2023-07-02T10:21:41;100757.17;;;21.01;43.94
48095;BME280;33874;52.070;-0.516;2023-07-02T10:24:16;100752.34;;;21.07;43.47
48095;BME280;33874;52.070;-0.516;2023-07-02T10:27:02;100752.31;;;21.02;42.90
48095;BME280;33874;52.070;-0.516;2023-07-02T10:29:33;100756.23;;;20.84;42.92
48095;BME280;33874;52.070;-0.516;2023-07-02T10:32:01;100755.00;;;20.86;43.37
48095;BME280;33874;52.070;-0.516;2023-07-02T10:34:35;100758.64;;;20.70;42.76
48095;BME280;33874;52.070;-0.516;2023-07-02T10:37:03;100755.96;;;20.56;43.30
48095;BME280;33874;52.070;-0.516;2023-07-02T10:39:32;100763.32;;;20.46;43.32
48095;BME280;33874;52.070;-0.516;2023-07-02T10:42:07;100752.89;;;20.37;43.43
48095;BME280;33874;52.070;-0.516;2023-07-02T10:44:50;100753.30;;;20.41;43.59
48095;BME280;33874;52.070;-0.516;2023-07-02T10:47:19;100754.59;;;20.74;43.88
48095;BME280;33874;52.070;-0.516;2023-07-02T10:49:47;100753.10;;;21.14;43.98
48095;BME280;33874;52.070;-0.516;2023-07-02T10:52:15;100750.75;;;21.47;42.81
48095;BME280;33874;52.070;-0.516;2023-07-02T10:54:44;100751.39;;;21.53;41.95
48095;BME280;33874;52.070;-0.516;2023-07-02T10:57:13;100755.29;;;21.45;41.58
48095;BME280;33874;52.070;-0.516;2023-07-02T10:59:48;100751.00;;;21.24;41.47
48095;BME280;33874;52.070;-0.516;2023-07-02T11:02:17;100753.30;;;21.18;42.10
48095;BME280;33874;52.070;-0.516;2023-07-02T11:04:45;100750.08;;;21.20;42.05
48095;BME280;33874;52.070;-0.516;2023-07-02T11:07:14;100748.79;;;21.41;41.98
48095;BME280;33874;52.070;-0.516;2023-07-02T11:09:50;100744.86;;;21.72;42.04
48095;BME280;33874;52.070;-0.516;2023-07-02T11:12:27;100737.48;;;22.03;42.35
48095;BME280;33874;52.070;-0.516;2023-07-02T11:14:55;100740.18;;;22.14;41.72
48095;BME280;33874;52.070;-0.516;2023-07-02T11:17:26;100746.45;;;22.07;41.13
48095;BME280;33874;52.070;-0.516;2023-07-02T11:19:54;100747.95;;;21.82;40.88
48095;BME280;33874;52.070;-0.516;2023-07-02T11:22:33;100747.59;;;21.57;41.39
48095;BME280;33874;52.070;-0.516;2023-07-02T11:25:18;100744.31;;;21.43;40.73
48095;BME280;33874;52.070;-0.516;2023-07-02T11:27:47;100745.48;;;21.38;41.03
48095;BME280;33874;52.070;-0.516;2023-07-02T11:30:15;100747.15;;;21.54;40.58
48095;BME280;33874;52.070;-0.516;2023-07-02T11:32:51;100746.68;;;21.54;40.07
48095;BME280;33874;52.070;-0.516;2023-07-02T11:35:21;100745.08;;;21.52;40.44
48095;BME280;33874;52.070;-0.516;2023-07-02T11:37:49;100743.33;;;21.62;40.63
48095;BME280;33874;52.070;-0.516;2023-07-02T11:40:18;100740.21;;;21.76;40.83
48095;BME280;33874;52.070;-0.516;2023-07-02T11:42:46;100740.80;;;21.83;40.24
48095;BME280;33874;52.070;-0.516;2023-07-02T11:45:14;100742.48;;;21.74;40.69
48095;BME280;33874;52.070;-0.516;2023-07-02T11:47:42;100746.52;;;21.76;40.95
48095;BME280;33874;52.070;-0.516;2023-07-02T11:50:10;100746.77;;;21.68;39.99
48095;BME280;33874;52.070;-0.516;2023-07-02T11:52:53;100737.40;;;21.72;39.91
48095;BME280;33874;52.070;-0.516;2023-07-02T11:55:21;100730.20;;;21.87;39.25
48095;BME280;33874;52.070;-0.516;2023-07-02T11:57:49;100735.55;;;21.79;39.74
48095;BME280;33874;52.070;-0.516;2023-07-02T12:00:17;100739.84;;;21.58;39.30
48095;BME280;33874;52.070;-0.516;2023-07-02T12:02:45;100735.16;;;21.39;39.77
48095;BME280;33874;52.070;-0.516;2023-07-02T12:05:14;100740.83;;;21.24;39.79
48095;BME280;33874;52.070;-0.516;2023-07-02T12:07:42;100740.71;;;21.29;40.64
48095;BME280;33874;52.070;-0.516;2023-07-02T12:10:10;100739.96;;;21.42;40.77
48095;BME280;33874;52.070;-0.516;2023-07-02T12:12:38;100740.61;;;21.51;40.61
48095;BME280;33874;52.070;-0.516;2023-07-02T12:15:06;100743.36;;;21.63;40.57
48095;BME280;33874;52.070;-0.516;2023-07-02T12:17:34;100743.57;;;21.83;40.46
48095;BME280;33874;52.070;-0.516;2023-07-02T12:20:03;100739.83;;;21.91;39.58
48095;BME280;33874;52.070;-0.516;2023-07-02T12:22:31;100741.51;;;21.86;39.53
48095;BME280;33874;52.070;-0.516;2023-07-02T12:24:59;100742.30;;;21.71;38.82
48095;BME280;33874;52.070;-0.516;2023-07-02T12:27:27;100745.29;;;21.42;38.77
48095;BME280;33874;52.070;-0.516;2023-07-02T12:29:56;100735.48;;;21.21;39.02
48095;BME280;33874;52.070;-0.516;2023-07-02T12:32:24;100735.29;;;21.13;39.71
48095;BME280;33874;52.070;-0.516;2023-07-02T12:34:52;100736.88;;;21.27;39.83
48095;BME280;33874;52.070;-0.516;2023-07-02T12:37:20;100731.39;;;21.43;40.11
48095;BME280;33874;52.070;-0.516;2023-07-02T12:39:48;100730.27;;;21.49;39.57
48095;BME280;33874;52.070;-0.516;2023-07-02T12:42:16;100730.38;;;21.47;39.55
48095;BME280;33874;52.070;-0.516;2023-07-02T12:44:44;100728.52;;;21.48;39.46
48095;BME280;33874;52.070;-0.516;2023-07-02T12:47:12;100731.71;;;21.55;39.34
48095;BME280;33874;52.070;-0.516;2023-07-02T12:49:40;100730.21;;;21.71;38.84